Главная страница
METAR-TAF:

METAR-TAF

Аэропорты :

Цзянбэй

Чунцин, Китай

широта: 29-31N, долгота: 106-29E, высота над уровнем моря: 351 м

Текущие метеонаблюдения

Эта сводка был подготовлена 1 час и 5 минут назад, в 09:00 UTC
Ветер 8 Узел от северо-восточный, изменяющийся между северо-северо-восточный и восточный
Температура 19°C
Влажность 49%
Давление 1014 hPa
Видимость 10 км и более
небольшая облачность на высоте 4600 фута

METAR: ZUCK 250900Z 05004MPS 020V100 9999 FEW046 19/08 Q1014 NOSIG

Время: 18:05 (10:05 UTC)

Прогноз

Эта сводка был подготовлена 7 часа и 2 минут назад, в 03:03 UTC
Прогноз действительный с 25-го 06 UTC до 26-го 06 UTC
Ветер 6 Узел от северный
Видимость: 5000 м
Отдельные облака на высоте 4000 фута
дымка

TAF: ZUCK 250303Z 2506/2606 01003MPS 5000 BR SCT040 TX20/2508Z TN12/2522Z

Метеонаблюдения и прогнозы для более 4000 аэропортов (сводки METAR и TAF).

Имеющиеся станции представлены на карте желтыми и красными точками.

Чтобы увидеть название станции, наведите на нее мышь.

Затем щелкните, чтобы увидеть метеонаблюдения и метеопрогнозы.

Управление картой: чтобы увеличить масштаб, щелкните зеленые кнопки с черным крестиком; чтобы уменьшить масштаб, щелкните зеленую кнопку с тире; для просмотра соседних карт щелкайте зеленые стрелки.


METAR-TAF: